aviador You're here:

KBIL Decoded Metar

BILLINGS in MT, USA
Report Time2018-05-23 16:13:00
UTC Time2018-05-23 16:25:27
Flight Rules mvfr MVFR
Wind060° at 07 kt
W.Decomp.*RWY 07: 6.4 kt HW 2.8 kt LCW
RWY 10: 4.1 kt HW 5.7 kt LCW
W.Rank060° ranks 8
Current wind is below 060° avg. (8.4)
Visibility9999 m
Phenomena:N/A
Clouds:Scattered 003 Hf
Broken 019 Hf
Overcast 046 Hf
Expected CloudBase > 400 ft AGL from Temp-Dew spread
Ceiling1,900 ft
Temp14°C (ISA +6)
Dew Point13°C (94% RH)
AAT12.4°C
QNH1013 hPa
Density Alt4,511 ft
Elevation3,579 ft
Report Wrong Elevation
Raw Report
KBIL 231613Z 06007KT 9SM SCT003 BKN019 OVC046 14/13 A2990=

Extra information for KBIL:More info

Metar Taf Metar & Taf Last 4 Metars F.Rules Stats Wind Profile Meteogram Temp Stats Airport Information Weather charts Add Link Nearby VenuesMetar ALERT Operation Metar Decoded Social comments

AIRNAV info for KBIL